sensor_id;sensor_type;location;lat;lon;timestamp;pressure;altitude;pressure_sealevel;temperature;humidity
75996;BME280;64681;49.738;9.004;2023-03-21T00:00:54;99733.94;;;9.96;64.73
75996;BME280;64681;49.738;9.004;2023-03-21T00:03:20;99735.06;;;10.04;64.91
75996;BME280;64681;49.738;9.004;2023-03-21T00:05:46;99737.38;;;10.05;65.31
75996;BME280;64681;49.738;9.004;2023-03-21T00:08:16;99735.50;;;10.06;64.97
75996;BME280;64681;49.738;9.004;2023-03-21T00:10:42;99722.31;;;10.01;65.05
75996;BME280;64681;49.738;9.004;2023-03-21T00:13:07;99717.81;;;9.84;66.22
75996;BME280;64681;49.738;9.004;2023-03-21T00:15:33;99714.81;;;9.85;65.70
75996;BME280;64681;49.738;9.004;2023-03-21T00:18:03;99721.88;;;9.90;65.65
75996;BME280;64681;49.738;9.004;2023-03-21T00:20:30;99721.69;;;9.95;65.93
75996;BME280;64681;49.738;9.004;2023-03-21T00:22:59;99723.28;;;9.96;65.78
75996;BME280;64681;49.738;9.004;2023-03-21T00:25:26;99717.16;;;9.87;65.61
75996;BME280;64681;49.738;9.004;2023-03-21T00:27:52;99721.22;;;9.93;66.22
75996;BME280;64681;49.738;9.004;2023-03-21T00:30:18;99718.59;;;9.75;66.30
75996;BME280;64681;49.738;9.004;2023-03-21T00:32:45;99706.34;;;9.57;66.99
75996;BME280;64681;49.738;9.004;2023-03-21T00:35:11;99706.34;;;9.65;66.50
75996;BME280;64681;49.738;9.004;2023-03-21T00:37:36;99704.31;;;9.71;66.08
75996;BME280;64681;49.738;9.004;2023-03-21T00:40:03;99706.66;;;9.81;65.80
75996;BME280;64681;49.738;9.004;2023-03-21T00:42:34;99696.00;;;9.73;65.58
75996;BME280;64681;49.738;9.004;2023-03-21T00:45:00;99695.53;;;9.71;65.46
75996;BME280;64681;49.738;9.004;2023-03-21T00:47:26;99693.66;;;9.71;65.55
75996;BME280;64681;49.738;9.004;2023-03-21T00:49:53;99688.78;;;9.73;65.54
75996;BME280;64681;49.738;9.004;2023-03-21T00:52:18;99685.66;;;9.71;65.94
75996;BME280;64681;49.738;9.004;2023-03-21T00:54:44;99677.00;;;9.65;66.02
75996;BME280;64681;49.738;9.004;2023-03-21T00:57:09;99672.03;;;9.55;66.69
75996;BME280;64681;49.738;9.004;2023-03-21T00:59:35;99673.44;;;9.61;66.43
75996;BME280;64681;49.738;9.004;2023-03-21T01:02:01;99669.69;;;9.54;66.84
75996;BME280;64681;49.738;9.004;2023-03-21T01:04:27;99674.69;;;9.55;66.95
75996;BME280;64681;49.738;9.004;2023-03-21T01:06:53;99678.94;;;9.56;67.26
75996;BME280;64681;49.738;9.004;2023-03-21T01:09:22;99678.28;;;9.33;67.72
75996;BME280;64681;49.738;9.004;2023-03-21T01:11:49;99672.34;;;9.45;66.74
75996;BME280;64681;49.738;9.004;2023-03-21T01:14:17;99674.69;;;9.29;66.97
75996;BME280;64681;49.738;9.004;2023-03-21T01:16:43;99673.13;;;9.28;66.97
75996;BME280;64681;49.738;9.004;2023-03-21T01:19:12;99681.09;;;9.01;68.08
75996;BME280;64681;49.738;9.004;2023-03-21T01:21:39;99660.41;;;9.16;67.60
75996;BME280;64681;49.738;9.004;2023-03-21T01:24:05;99672.66;;;9.17;67.95
75996;BME280;64681;49.738;9.004;2023-03-21T01:26:31;99667.00;;;9.18;67.18
75996;BME280;64681;49.738;9.004;2023-03-21T01:28:57;99668.38;;;8.98;68.26
75996;BME280;64681;49.738;9.004;2023-03-21T01:31:22;99666.81;;;8.89;68.80
75996;BME280;64681;49.738;9.004;2023-03-21T01:33:48;99668.09;;;9.00;68.51
75996;BME280;64681;49.738;9.004;2023-03-21T01:36:17;99675.75;;;9.01;68.17
75996;BME280;64681;49.738;9.004;2023-03-21T01:38:43;99664.00;;;9.02;68.40
75996;BME280;64681;49.738;9.004;2023-03-21T01:41:24;99660.06;;;8.82;68.83
75996;BME280;64681;49.738;9.004;2023-03-21T01:43:51;99667.38;;;8.68;69.86
75996;BME280;64681;49.738;9.004;2023-03-21T01:46:34;99662.41;;;8.84;69.41
75996;BME280;64681;49.738;9.004;2023-03-21T01:51:43;99651.31;;;8.42;70.15
75996;BME280;64681;49.738;9.004;2023-03-21T01:54:16;99658.25;;;8.60;69.88
75996;BME280;64681;49.738;9.004;2023-03-21T01:56:45;99660.75;;;8.48;70.17
75996;BME280;64681;49.738;9.004;2023-03-21T01:59:36;99658.25;;;8.51;70.13
75996;BME280;64681;49.738;9.004;2023-03-21T02:02:09;99648.31;;;8.34;70.38
75996;BME280;64681;49.738;9.004;2023-03-21T02:04:37;99650.31;;;8.29;70.35
75996;BME280;64681;49.738;9.004;2023-03-21T02:07:14;99652.81;;;8.34;70.19
75996;BME280;64681;49.738;9.004;2023-03-21T02:09:48;99631.81;;;7.92;71.65
75996;BME280;64681;49.738;9.004;2023-03-21T02:12:15;99653.16;;;7.78;73.06
75996;BME280;64681;49.738;9.004;2023-03-21T02:14:42;99643.75;;;7.72;72.97
75996;BME280;64681;49.738;9.004;2023-03-21T02:25:52;99645.44;;;7.45;74.00
75996;BME280;64681;49.738;9.004;2023-03-21T02:28:46;99642.00;;;7.44;73.78
75996;BME280;64681;49.738;9.004;2023-03-21T02:32:15;99637.56;;;7.40;74.09
75996;BME280;64681;49.738;9.004;2023-03-21T02:39:49;99632.22;;;7.31;74.42
75996;BME280;64681;49.738;9.004;2023-03-21T02:45:31;99626.94;;;7.40;74.13
75996;BME280;64681;49.738;9.004;2023-03-21T02:48:08;99627.09;;;7.57;73.28
75996;BME280;64681;49.738;9.004;2023-03-21T02:50:51;99628.41;;;7.69;72.76
75996;BME280;64681;49.738;9.004;2023-03-21T02:53:22;99611.63;;;7.59;73.43
75996;BME280;64681;49.738;9.004;2023-03-21T02:55:51;99624.22;;;7.76;72.68
75996;BME280;64681;49.738;9.004;2023-03-21T02:58:22;99619.06;;;7.71;71.74
75996;BME280;64681;49.738;9.004;2023-03-21T03:00:51;99624.97;;;7.68;71.69
75996;BME280;64681;49.738;9.004;2023-03-21T03:03:19;99626.34;;;7.66;71.87
75996;BME280;64681;49.738;9.004;2023-03-21T03:05:53;99616.16;;;7.36;73.14
75996;BME280;64681;49.738;9.004;2023-03-21T03:11:28;99625.94;;;7.27;73.83
75996;BME280;64681;49.738;9.004;2023-03-21T03:19:27;99628.00;;;6.93;74.68
75996;BME280;64681;49.738;9.004;2023-03-21T03:22:11;99606.66;;;6.85;74.59
75996;BME280;64681;49.738;9.004;2023-03-21T03:24:59;99618.13;;;7.08;74.08
75996;BME280;64681;49.738;9.004;2023-03-21T03:27:49;99619.47;;;7.19;73.09
75996;BME280;64681;49.738;9.004;2023-03-21T03:30:18;99623.19;;;7.18;72.96
75996;BME280;64681;49.738;9.004;2023-03-21T03:32:52;99604.47;;;7.01;72.84
75996;BME280;64681;49.738;9.004;2023-03-21T03:35:20;99617.97;;;6.76;74.57
75996;BME280;64681;49.738;9.004;2023-03-21T03:37:53;99608.88;;;6.41;75.36
75996;BME280;64681;49.738;9.004;2023-03-21T03:40:37;99617.81;;;6.59;75.49
75996;BME280;64681;49.738;9.004;2023-03-21T03:43:11;99608.00;;;6.59;75.23
75996;BME280;64681;49.738;9.004;2023-03-21T03:45:48;99616.78;;;6.82;74.60
75996;BME280;64681;49.738;9.004;2023-03-21T03:48:34;99617.38;;;6.93;73.63
75996;BME280;64681;49.738;9.004;2023-03-21T03:51:12;99611.47;;;6.82;74.06
75996;BME280;64681;49.738;9.004;2023-03-21T03:53:54;99605.53;;;6.21;76.50
75996;BME280;64681;49.738;9.004;2023-03-21T03:56:21;99610.50;;;5.62;78.62
75996;BME280;64681;49.738;9.004;2023-03-21T03:58:50;99617.47;;;5.58;79.40
75996;BME280;64681;49.738;9.004;2023-03-21T04:01:15;99621.66;;;5.78;77.97
75996;BME280;64681;49.738;9.004;2023-03-21T04:03:45;99622.38;;;5.97;77.24
75996;BME280;64681;49.738;9.004;2023-03-21T04:06:12;99614.56;;;6.20;76.12
75996;BME280;64681;49.738;9.004;2023-03-21T04:08:38;99618.03;;;6.21;76.07
75996;BME280;64681;49.738;9.004;2023-03-21T04:11:04;99614.38;;;6.16;75.85
75996;BME280;64681;49.738;9.004;2023-03-21T04:13:30;99619.75;;;6.25;75.25
75996;BME280;64681;49.738;9.004;2023-03-21T04:15:55;99612.28;;;6.13;75.90
75996;BME280;64681;49.738;9.004;2023-03-21T04:18:21;99619.38;;;6.04;75.80
75996;BME280;64681;49.738;9.004;2023-03-21T04:20:48;99623.03;;;6.22;75.68
75996;BME280;64681;49.738;9.004;2023-03-21T04:23:16;99605.94;;;6.28;74.79
75996;BME280;64681;49.738;9.004;2023-03-21T04:25:43;99608.28;;;6.16;76.24
75996;BME280;64681;49.738;9.004;2023-03-21T04:28:10;99620.44;;;5.70;77.41
75996;BME280;64681;49.738;9.004;2023-03-21T04:30:35;99622.97;;;5.61;78.02
75996;BME280;64681;49.738;9.004;2023-03-21T04:33:01;99610.34;;;5.72;78.25
75996;BME280;64681;49.738;9.004;2023-03-21T04:35:27;99612.28;;;5.99;76.78
75996;BME280;64681;49.738;9.004;2023-03-21T04:37:53;99616.28;;;5.97;77.33
75996;BME280;64681;49.738;9.004;2023-03-21T04:40:19;99615.28;;;6.26;76.62
75996;BME280;64681;49.738;9.004;2023-03-21T04:42:47;99613.91;;;6.42;75.64
75996;BME280;64681;49.738;9.004;2023-03-21T04:45:14;99610.63;;;6.59;75.68
75996;BME280;64681;49.738;9.004;2023-03-21T04:47:40;99600.66;;;6.79;74.43
75996;BME280;64681;49.738;9.004;2023-03-21T04:50:07;99591.41;;;6.90;74.21
75996;BME280;64681;49.738;9.004;2023-03-21T04:52:33;99598.66;;;7.12;73.94
75996;BME280;64681;49.738;9.004;2023-03-21T04:54:59;99592.84;;;7.10;74.13
75996;BME280;64681;49.738;9.004;2023-03-21T04:57:25;99576.09;;;6.87;73.61
75996;BME280;64681;49.738;9.004;2023-03-21T04:59:51;99585.97;;;7.09;73.92
75996;BME280;64681;49.738;9.004;2023-03-21T05:02:16;99596.34;;;7.20;73.73
75996;BME280;64681;49.738;9.004;2023-03-21T05:04:42;99593.94;;;7.32;73.17
75996;BME280;64681;49.738;9.004;2023-03-21T05:07:08;99594.34;;;7.25;73.21
75996;BME280;64681;49.738;9.004;2023-03-21T05:09:33;99600.34;;;7.31;72.73
75996;BME280;64681;49.738;9.004;2023-03-21T05:11:59;99590.19;;;7.33;73.02
75996;BME280;64681;49.738;9.004;2023-03-21T05:14:26;99595.06;;;7.17;73.38
75996;BME280;64681;49.738;9.004;2023-03-21T05:16:52;99591.75;;;7.11;73.37
75996;BME280;64681;49.738;9.004;2023-03-21T05:19:25;99578.16;;;6.76;74.20
75996;BME280;64681;49.738;9.004;2023-03-21T05:22:03;99589.97;;;6.70;73.84
75996;BME280;64681;49.738;9.004;2023-03-21T05:24:30;99594.09;;;6.76;74.15
75996;BME280;64681;49.738;9.004;2023-03-21T05:26:57;99580.59;;;6.22;75.94
75996;BME280;64681;49.738;9.004;2023-03-21T05:29:31;99591.88;;;6.42;75.18
75996;BME280;64681;49.738;9.004;2023-03-21T05:32:00;99597.94;;;6.56;74.85
75996;BME280;64681;49.738;9.004;2023-03-21T05:34:26;99592.47;;;6.53;74.82
75996;BME280;64681;49.738;9.004;2023-03-21T05:36:52;99596.78;;;6.48;74.77
75996;BME280;64681;49.738;9.004;2023-03-21T05:39:18;99596.88;;;6.57;73.72
75996;BME280;64681;49.738;9.004;2023-03-21T05:41:43;99588.84;;;6.48;74.26
75996;BME280;64681;49.738;9.004;2023-03-21T05:44:11;99587.66;;;6.27;75.14
75996;BME280;64681;49.738;9.004;2023-03-21T05:46:36;99595.75;;;5.89;77.45
75996;BME280;64681;49.738;9.004;2023-03-21T05:49:02;99596.31;;;5.38;79.29
75996;BME280;64681;49.738;9.004;2023-03-21T05:51:27;99598.25;;;5.66;78.76
75996;BME280;64681;49.738;9.004;2023-03-21T05:53:53;99591.00;;;6.18;76.43
75996;BME280;64681;49.738;9.004;2023-03-21T05:56:18;99592.19;;;6.26;76.52
75996;BME280;64681;49.738;9.004;2023-03-21T05:58:46;99594.25;;;6.43;75.96
75996;BME280;64681;49.738;9.004;2023-03-21T06:01:12;99599.25;;;6.95;74.73
75996;BME280;64681;49.738;9.004;2023-03-21T06:03:38;99581.75;;;7.31;73.16
75996;BME280;64681;49.738;9.004;2023-03-21T06:06:04;99595.44;;;7.70;72.34
75996;BME280;64681;49.738;9.004;2023-03-21T06:08:31;99593.47;;;7.84;71.81
75996;BME280;64681;49.738;9.004;2023-03-21T06:10:56;99590.09;;;7.92;70.82
75996;BME280;64681;49.738;9.004;2023-03-21T06:13:22;99585.38;;;8.30;70.22
75996;BME280;64681;49.738;9.004;2023-03-21T06:15:47;99577.47;;;8.65;68.95
75996;BME280;64681;49.738;9.004;2023-03-21T06:18:13;99582.69;;;9.05;68.00
75996;BME280;64681;49.738;9.004;2023-03-21T06:20:39;99577.34;;;9.31;67.38
75996;BME280;64681;49.738;9.004;2023-03-21T06:23:05;99591.63;;;9.18;66.30
75996;BME280;64681;49.738;9.004;2023-03-21T06:25:30;99579.56;;;9.12;67.76
75996;BME280;64681;49.738;9.004;2023-03-21T06:27:56;99589.25;;;9.16;67.07
75996;BME280;64681;49.738;9.004;2023-03-21T06:30:22;99582.81;;;9.53;65.70
75996;BME280;64681;49.738;9.004;2023-03-21T06:32:47;99597.44;;;9.94;65.37
75996;BME280;64681;49.738;9.004;2023-03-21T06:35:13;99600.94;;;10.16;64.07
75996;BME280;64681;49.738;9.004;2023-03-21T06:37:39;99588.09;;;9.70;65.23
75996;BME280;64681;49.738;9.004;2023-03-21T06:40:05;99608.22;;;9.32;65.96
75996;BME280;64681;49.738;9.004;2023-03-21T06:42:33;99600.19;;;9.59;64.87
75996;BME280;64681;49.738;9.004;2023-03-21T06:44:58;99601.59;;;9.65;65.21
75996;BME280;64681;49.738;9.004;2023-03-21T06:47:24;99600.91;;;9.86;64.73
75996;BME280;64681;49.738;9.004;2023-03-21T06:49:50;99603.47;;;9.73;64.38
75996;BME280;64681;49.738;9.004;2023-03-21T06:52:16;99596.53;;;9.81;64.52
75996;BME280;64681;49.738;9.004;2023-03-21T06:54:41;99614.81;;;10.00;63.93
75996;BME280;64681;49.738;9.004;2023-03-21T06:57:07;99591.09;;;9.60;64.56
75996;BME280;64681;49.738;9.004;2023-03-21T06:59:33;99599.13;;;9.42;65.71
75996;BME280;64681;49.738;9.004;2023-03-21T07:01:58;99592.91;;;9.86;64.81
75996;BME280;64681;49.738;9.004;2023-03-21T07:04:32;99578.50;;;11.19;61.46
75996;BME280;64681;49.738;9.004;2023-03-21T07:06:58;99587.22;;;12.20;59.22
75996;BME280;64681;49.738;9.004;2023-03-21T07:09:27;99597.34;;;12.51;56.08
75996;BME280;64681;49.738;9.004;2023-03-21T07:11:54;99580.66;;;12.71;56.53
75996;BME280;64681;49.738;9.004;2023-03-21T07:14:48;99610.78;;;13.33;55.78
75996;BME280;64681;49.738;9.004;2023-03-21T07:17:24;99571.31;;;13.34;55.37
75996;BME280;64681;49.738;9.004;2023-03-21T07:19:58;99598.41;;;13.89;53.69
75996;BME280;64681;49.738;9.004;2023-03-21T07:22:28;99579.69;;;13.92;53.79
75996;BME280;64681;49.738;9.004;2023-03-21T07:24:58;99560.19;;;14.12;53.13
75996;BME280;64681;49.738;9.004;2023-03-21T07:27:26;99570.34;;;14.70;51.52
75996;BME280;64681;49.738;9.004;2023-03-21T07:30:18;99589.88;;;14.67;51.23
75996;BME280;64681;49.738;9.004;2023-03-21T07:33:09;99588.13;;;14.59;51.34
75996;BME280;64681;49.738;9.004;2023-03-21T07:36:01;99589.03;;;15.02;50.57
75996;BME280;64681;49.738;9.004;2023-03-21T07:39:15;99586.31;;;15.22;51.18
75996;BME280;64681;49.738;9.004;2023-03-21T07:42:51;99582.38;;;14.60;50.13
75996;BME280;64681;49.738;9.004;2023-03-21T07:45:35;99583.69;;;14.66;51.79
75996;BME280;64681;49.738;9.004;2023-03-21T07:48:12;99568.94;;;14.40;51.64
75996;BME280;64681;49.738;9.004;2023-03-21T07:54:30;99572.22;;;15.71;48.90
75996;BME280;64681;49.738;9.004;2023-03-21T07:57:14;99564.88;;;17.02;47.64
75996;BME280;64681;49.738;9.004;2023-03-21T07:59:42;99569.84;;;17.34;45.65
75996;BME280;64681;49.738;9.004;2023-03-21T08:02:28;99563.75;;;17.45;44.26
75996;BME280;64681;49.738;9.004;2023-03-21T08:05:41;99573.69;;;17.33;44.21
75996;BME280;64681;49.738;9.004;2023-03-21T08:08:18;99554.84;;;17.03;44.33
75996;BME280;64681;49.738;9.004;2023-03-21T08:10:46;99568.50;;;16.26;45.45
75996;BME280;64681;49.738;9.004;2023-03-21T08:13:48;99556.09;;;17.13;46.30
75996;BME280;64681;49.738;9.004;2023-03-21T08:16:34;99547.00;;;18.18;42.47
75996;BME280;64681;49.738;9.004;2023-03-21T08:19:18;99531.34;;;17.03;43.30
75996;BME280;64681;49.738;9.004;2023-03-21T08:21:49;99560.47;;;17.24;43.25
75996;BME280;64681;49.738;9.004;2023-03-21T08:28:27;99564.47;;;17.83;43.03
75996;BME280;64681;49.738;9.004;2023-03-21T08:31:27;99573.44;;;16.81;44.13
75996;BME280;64681;49.738;9.004;2023-03-21T08:34:12;99574.88;;;16.71;44.81
75996;BME280;64681;49.738;9.004;2023-03-21T08:37:04;99557.72;;;17.21;44.30
75996;BME280;64681;49.738;9.004;2023-03-21T08:39:32;99564.22;;;17.54;43.85
75996;BME280;64681;49.738;9.004;2023-03-21T08:42:06;99540.50;;;17.33;43.00
75996;BME280;64681;49.738;9.004;2023-03-21T08:44:46;99559.22;;;17.52;42.50
75996;BME280;64681;49.738;9.004;2023-03-21T08:47:24;99545.00;;;17.18;44.75
75996;BME280;64681;49.738;9.004;2023-03-21T08:49:58;99547.38;;;17.27;44.40
75996;BME280;64681;49.738;9.004;2023-03-21T08:55:39;99566.56;;;16.53;45.61
75996;BME280;64681;49.738;9.004;2023-03-21T08:58:04;99554.72;;;17.26;44.81
75996;BME280;64681;49.738;9.004;2023-03-21T09:01:16;99572.34;;;16.86;45.45
75996;BME280;64681;49.738;9.004;2023-03-21T09:04:22;99570.41;;;17.99;43.06
75996;BME280;64681;49.738;9.004;2023-03-21T09:06:51;99546.28;;;17.31;42.27
75996;BME280;64681;49.738;9.004;2023-03-21T09:09:43;99548.13;;;18.10;41.54
75996;BME280;64681;49.738;9.004;2023-03-21T09:12:26;99562.09;;;18.23;42.78
75996;BME280;64681;49.738;9.004;2023-03-21T09:15:14;99526.53;;;18.17;41.72
75996;BME280;64681;49.738;9.004;2023-03-21T09:18:10;99561.50;;;17.50;44.60
75996;BME280;64681;49.738;9.004;2023-03-21T09:20:43;99547.69;;;17.59;43.04
75996;BME280;64681;49.738;9.004;2023-03-21T09:23:14;99539.69;;;17.70;42.23
75996;BME280;64681;49.738;9.004;2023-03-21T09:25:49;99544.75;;;17.34;42.21
75996;BME280;64681;49.738;9.004;2023-03-21T09:28:20;99556.72;;;17.36;43.20
75996;BME280;64681;49.738;9.004;2023-03-21T09:30:45;99535.94;;;16.69;44.92
75996;BME280;64681;49.738;9.004;2023-03-21T09:33:27;99542.28;;;16.84;45.06
75996;BME280;64681;49.738;9.004;2023-03-21T09:36:18;99523.69;;;17.09;43.20
75996;BME280;64681;49.738;9.004;2023-03-21T09:39:33;99554.03;;;17.36;43.17
75996;BME280;64681;49.738;9.004;2023-03-21T09:43:19;99530.25;;;17.49;42.79
75996;BME280;64681;49.738;9.004;2023-03-21T09:53:50;99551.38;;;19.40;41.11
75996;BME280;64681;49.738;9.004;2023-03-21T10:00:06;99529.59;;;18.08;41.71
75996;BME280;64681;49.738;9.004;2023-03-21T10:03:37;99548.81;;;18.66;41.51
75996;BME280;64681;49.738;9.004;2023-03-21T10:06:58;99523.47;;;18.22;41.57
75996;BME280;64681;49.738;9.004;2023-03-21T10:09:46;99541.63;;;18.99;41.58
75996;BME280;64681;49.738;9.004;2023-03-21T10:12:49;99546.69;;;19.22;41.05
75996;BME280;64681;49.738;9.004;2023-03-21T10:15:59;99546.34;;;19.60;41.70
75996;BME280;64681;49.738;9.004;2023-03-21T10:19:11;99542.88;;;19.99;40.29
75996;BME280;64681;49.738;9.004;2023-03-21T10:28:54;99530.09;;;19.42;40.33
75996;BME280;64681;49.738;9.004;2023-03-21T10:38:46;99534.06;;;18.53;42.07
75996;BME280;64681;49.738;9.004;2023-03-21T10:41:48;99535.22;;;18.55;40.48
75996;BME280;64681;49.738;9.004;2023-03-21T10:48:13;99534.31;;;19.28;39.31
75996;BME280;64681;49.738;9.004;2023-03-21T10:50:45;99512.44;;;18.56;41.87
75996;BME280;64681;49.738;9.004;2023-03-21T10:54:06;99531.53;;;18.96;41.26
75996;BME280;64681;49.738;9.004;2023-03-21T10:57:26;99535.88;;;19.40;38.08
75996;BME280;64681;49.738;9.004;2023-03-21T11:00:52;99535.09;;;19.29;38.99
75996;BME280;64681;49.738;9.004;2023-03-21T11:07:27;99536.47;;;18.76;40.91
75996;BME280;64681;49.738;9.004;2023-03-21T11:27:56;99522.31;;;18.23;40.02
75996;BME280;64681;49.738;9.004;2023-03-21T11:34:36;99516.22;;;18.33;43.28
75996;BME280;64681;49.738;9.004;2023-03-21T11:37:16;99499.25;;;18.47;39.80
75996;BME280;64681;49.738;9.004;2023-03-21T11:39:45;99488.75;;;18.28;40.42
75996;BME280;64681;49.738;9.004;2023-03-21T11:42:31;99498.41;;;18.25;41.47
75996;BME280;64681;49.738;9.004;2023-03-21T11:45:09;99494.78;;;17.99;41.03
75996;BME280;64681;49.738;9.004;2023-03-21T11:47:38;99487.34;;;17.89;41.67
75996;BME280;64681;49.738;9.004;2023-03-21T11:50:40;99508.25;;;17.96;43.92
75996;BME280;64681;49.738;9.004;2023-03-21T11:56:41;99486.56;;;16.95;44.62
75996;BME280;64681;49.738;9.004;2023-03-21T12:00:14;99507.63;;;17.65;46.34
75996;BME280;64681;49.738;9.004;2023-03-21T12:06:36;99505.00;;;17.27;46.83
75996;BME280;64681;49.738;9.004;2023-03-21T12:15:23;99504.81;;;17.09;50.57
75996;BME280;64681;49.738;9.004;2023-03-21T12:21:02;99465.78;;;16.99;47.96
75996;BME280;64681;49.738;9.004;2023-03-21T12:26:34;99464.81;;;16.46;51.82
75996;BME280;64681;49.738;9.004;2023-03-21T12:29:17;99487.69;;;16.60;51.09
75996;BME280;64681;49.738;9.004;2023-03-21T12:35:13;99438.38;;;16.25;52.64
75996;BME280;64681;49.738;9.004;2023-03-21T12:42:56;99462.78;;;16.09;52.24
75996;BME280;64681;49.738;9.004;2023-03-21T12:45:37;99460.75;;;16.29;53.05
75996;BME280;64681;49.738;9.004;2023-03-21T12:51:03;99462.72;;;16.67;53.47
75996;BME280;64681;49.738;9.004;2023-03-21T12:56:14;99468.47;;;16.61;52.46
75996;BME280;64681;49.738;9.004;2023-03-21T12:59:28;99465.97;;;16.15;54.15
75996;BME280;64681;49.738;9.004;2023-03-21T13:02:00;99439.88;;;15.92;54.83
75996;BME280;64681;49.738;9.004;2023-03-21T13:07:44;99430.47;;;16.09;53.92
75996;BME280;64681;49.738;9.004;2023-03-21T13:10:15;99439.22;;;16.03;55.45
75996;BME280;64681;49.738;9.004;2023-03-21T13:13:04;99448.28;;;15.41;57.42
75996;BME280;64681;49.738;9.004;2023-03-21T13:18:33;99423.69;;;15.15;54.09
75996;BME280;64681;49.738;9.004;2023-03-21T13:23:39;99386.63;;;14.82;55.16
75996;BME280;64681;49.738;9.004;2023-03-21T13:26:10;99418.47;;;15.49;54.77
75996;BME280;64681;49.738;9.004;2023-03-21T13:28:39;99413.13;;;15.80;54.15
75996;BME280;64681;49.738;9.004;2023-03-21T13:31:21;99416.69;;;16.86;50.44
75996;BME280;64681;49.738;9.004;2023-03-21T13:33:51;99397.31;;;17.15;52.18
75996;BME280;64681;49.738;9.004;2023-03-21T13:36:27;99397.78;;;17.24;53.02
75996;BME280;64681;49.738;9.004;2023-03-21T13:38:59;99375.13;;;17.36;50.82
75996;BME280;64681;49.738;9.004;2023-03-21T13:41:33;99375.63;;;17.52;50.57
75996;BME280;64681;49.738;9.004;2023-03-21T13:51:54;99397.34;;;17.18;49.62
75996;BME280;64681;49.738;9.004;2023-03-21T13:54:44;99387.16;;;17.49;48.64
75996;BME280;64681;49.738;9.004;2023-03-21T14:03:00;99362.91;;;16.97;49.84
75996;BME280;64681;49.738;9.004;2023-03-21T14:05:31;99372.91;;;16.97;50.72
75996;BME280;64681;49.738;9.004;2023-03-21T14:08:04;99378.34;;;16.63;52.64
75996;BME280;64681;49.738;9.004;2023-03-21T14:10:34;99395.22;;;16.22;53.99
75996;BME280;64681;49.738;9.004;2023-03-21T14:13:04;99366.41;;;15.65;55.66
75996;BME280;64681;49.738;9.004;2023-03-21T14:15:43;99369.28;;;15.02;56.32
75996;BME280;64681;49.738;9.004;2023-03-21T14:18:18;99399.41;;;15.35;56.64
75996;BME280;64681;49.738;9.004;2023-03-21T14:20:51;99370.63;;;14.27;60.13
75996;BME280;64681;49.738;9.004;2023-03-21T14:23:18;99388.25;;;13.88;62.82
75996;BME280;64681;49.738;9.004;2023-03-21T14:25:47;99389.31;;;13.84;65.30
75996;BME280;64681;49.738;9.004;2023-03-21T14:28:23;99381.47;;;13.75;66.56
75996;BME280;64681;49.738;9.004;2023-03-21T14:30:55;99380.53;;;13.67;67.29
75996;BME280;64681;49.738;9.004;2023-03-21T14:33:32;99379.00;;;13.50;68.88
75996;BME280;64681;49.738;9.004;2023-03-21T14:36:05;99363.31;;;13.36;70.02
75996;BME280;64681;49.738;9.004;2023-03-21T14:38:36;99357.28;;;13.23;70.11
75996;BME280;64681;49.738;9.004;2023-03-21T14:41:02;99348.03;;;13.37;69.53
75996;BME280;64681;49.738;9.004;2023-03-21T14:43:28;99360.41;;;13.77;68.77
75996;BME280;64681;49.738;9.004;2023-03-21T14:45:58;99365.91;;;13.84;70.13
75996;BME280;64681;49.738;9.004;2023-03-21T14:48:32;99359.00;;;13.83;69.95
75996;BME280;64681;49.738;9.004;2023-03-21T14:51:04;99341.75;;;13.84;70.56
75996;BME280;64681;49.738;9.004;2023-03-21T14:53:37;99347.63;;;13.90;67.53
75996;BME280;64681;49.738;9.004;2023-03-21T14:56:21;99358.75;;;14.08;67.64
75996;BME280;64681;49.738;9.004;2023-03-21T14:58:48;99346.72;;;14.02;66.80
75996;BME280;64681;49.738;9.004;2023-03-21T15:01:40;99354.31;;;14.16;68.99
75996;BME280;64681;49.738;9.004;2023-03-21T15:04:13;99311.97;;;13.89;69.22
75996;BME280;64681;49.738;9.004;2023-03-21T15:06:49;99342.63;;;14.08;68.33
75996;BME280;64681;49.738;9.004;2023-03-21T15:09:23;99305.91;;;13.73;69.00
75996;BME280;64681;49.738;9.004;2023-03-21T15:11:52;99317.53;;;13.61;70.69
75996;BME280;64681;49.738;9.004;2023-03-21T15:14:24;99308.06;;;13.48;70.15
75996;BME280;64681;49.738;9.004;2023-03-21T15:16:53;99307.34;;;13.35;71.61
75996;BME280;64681;49.738;9.004;2023-03-21T15:19:27;99335.28;;;13.50;72.16
75996;BME280;64681;49.738;9.004;2023-03-21T15:24:44;99320.06;;;13.38;73.33
75996;BME280;64681;49.738;9.004;2023-03-21T15:27:17;99303.97;;;13.38;73.28
75996;BME280;64681;49.738;9.004;2023-03-21T15:29:44;99307.66;;;12.81;75.05
75996;BME280;64681;49.738;9.004;2023-03-21T15:32:17;99304.81;;;13.06;74.57
75996;BME280;64681;49.738;9.004;2023-03-21T15:34:47;99293.50;;;13.33;73.38
75996;BME280;64681;49.738;9.004;2023-03-21T15:37:22;99292.75;;;13.32;73.68
75996;BME280;64681;49.738;9.004;2023-03-21T15:39:48;99298.78;;;13.45;74.34
75996;BME280;64681;49.738;9.004;2023-03-21T15:43:05;99307.38;;;13.70;73.37
75996;BME280;64681;49.738;9.004;2023-03-21T15:45:32;99306.34;;;13.39;74.14
75996;BME280;64681;49.738;9.004;2023-03-21T15:48:06;99295.91;;;13.38;74.19
75996;BME280;64681;49.738;9.004;2023-03-21T15:50:40;99300.25;;;13.42;74.00
75996;BME280;64681;49.738;9.004;2023-03-21T15:53:13;99322.31;;;13.52;74.12
75996;BME280;64681;49.738;9.004;2023-03-21T15:55:48;99313.59;;;13.74;72.61
75996;BME280;64681;49.738;9.004;2023-03-21T15:58:22;99299.81;;;13.76;70.65
75996;BME280;64681;49.738;9.004;2023-03-21T16:00:53;99322.44;;;13.95;71.84
75996;BME280;64681;49.738;9.004;2023-03-21T16:03:25;99328.72;;;13.83;71.25
75996;BME280;64681;49.738;9.004;2023-03-21T16:08:43;99300.28;;;13.26;72.24
75996;BME280;64681;49.738;9.004;2023-03-21T16:11:17;99284.06;;;13.55;71.11
75996;BME280;64681;49.738;9.004;2023-03-21T16:13:44;99285.72;;;12.15;76.10
75996;BME280;64681;49.738;9.004;2023-03-21T16:16:25;99305.41;;;12.23;76.53
75996;BME280;64681;49.738;9.004;2023-03-21T16:18:52;99299.00;;;12.12;76.94
75996;BME280;64681;49.738;9.004;2023-03-21T16:21:21;99313.81;;;12.82;74.80